Terminal Aerodrome Forecast
Issued by NWS Bismarck, ND

Home | Current Version | Previous Version | Text Only | Print | Product List | Glossary Off
Versions: 1 2 3 4 5 6 7 8 9 10 11 12 13 14 15 16 17

393
FTUS43 KBIS 171135
TAFISN
TAF
KISN 171135Z 1712/1812 VRB03KT 1/2SM FG VV001
      TEMPO 1712/1715 2SM BR FEW001
     FM171500 20005KT 5SM BR FEW060
     FM171800 19009KT P6SM SCT250
     FM180100 16006KT P6SM SCT200=

USA.gov is the U.S. government's official web portal to all federal, state and local government web resources and services.